Time;durP1;ratioP1;P1;durP2;ratioP2;P2;SDS_P1;SDS_P2;PMS_P1;PMS_P2;Temp;Humidity;BMP_temperature;BMP_pressure;BME280_temperature;BME280_humidity;BME280_pressure;Samples;Min_cycle;Max_cycle;Signal;HPM_P1;HPM_P2
2021/01/19 00:00:52;;;;;;;2.57;2.37;;;-4.40;99.90;-6.00;97192.00;;;;5069124;28;20453;-64
2021/01/19 00:03:19;;;;;;;1.93;1.83;;;-4.30;99.90;-5.90;97192.00;;;;5066469;28;20552;-65
2021/01/19 00:05:47;;;;;;;2.87;2.57;;;-4.30;99.90;-5.80;97191.00;;;;5065120;28;20450;-66
2021/01/19 00:08:15;;;;;;;2.60;2.40;;;-4.30;99.90;-5.80;97191.00;;;;5070566;28;20516;-63
2021/01/19 00:10:42;;;;;;;2.30;2.10;;;-4.20;99.90;-5.70;97190.00;;;;5071515;28;20457;-67
2021/01/19 00:13:19;;;;;;;3.47;1.90;;;-4.20;99.90;-5.80;97197.00;;;;5065332;28;20557;-64
2021/01/19 00:15:48;;;;;;;3.93;2.47;;;-4.20;99.90;-5.90;97185.00;;;;5067184;28;20475;-66
2021/01/19 00:18:16;;;;;;;4.07;2.30;;;-4.20;99.90;-5.90;97187.00;;;;5070589;28;20443;-64
2021/01/19 00:20:44;;;;;;;3.30;2.40;;;-4.30;99.90;-5.90;97191.00;;;;5071084;28;20426;-64
2021/01/19 00:23:12;;;;;;;5.27;2.57;;;-4.10;99.90;-5.90;97185.00;;;;5070795;28;20483;-65
2021/01/19 00:25:41;;;;;;;3.17;2.37;;;-4.20;99.90;-5.90;97190.00;;;;5070942;28;20434;-65
2021/01/19 00:28:10;;;;;;;3.00;2.47;;;-4.30;99.90;-5.90;97195.00;;;;5070150;28;20503;-65
2021/01/19 00:30:43;;;;;;;3.97;2.63;;;-4.30;99.90;-6.00;97188.00;;;;5070791;28;20438;-65
2021/01/19 00:33:12;;;;;;;4.03;2.93;;;-4.30;99.90;-6.10;97181.00;;;;5069063;28;20450;-64
2021/01/19 00:35:40;;;;;;;4.13;2.53;;;-5.90;99.90;-6.10;97183.00;;;;5070430;28;20472;-65
2021/01/19 00:38:09;;;;;;;3.50;3.10;;;-4.40;99.90;-6.10;97177.00;;;;5070012;28;20438;-64
2021/01/19 00:40:37;;;;;;;2.87;2.20;;;-4.40;99.90;-6.00;97183.00;;;;5070839;28;20422;-64
2021/01/19 00:43:05;;;;;;;4.30;2.80;;;-4.40;99.90;-6.00;97194.00;;;;5058016;28;20458;-65
2021/01/19 00:45:33;;;;;;;2.77;1.93;;;-4.30;99.90;-6.20;97183.00;;;;5070055;28;20519;-65
2021/01/19 00:48:01;;;;;;;2.13;1.93;;;-4.40;99.90;-6.40;97187.00;;;;5070767;28;20516;-64
2021/01/19 00:50:29;;;;;;;2.93;2.50;;;-4.50;99.90;-6.30;97184.00;;;;5070668;28;20444;-65
2021/01/19 00:52:56;;;;;;;4.13;2.80;;;-4.60;99.90;-6.20;97186.00;;;;5067247;28;22193;-65
2021/01/19 00:55:24;;;;;;;2.70;2.50;;;-4.40;99.90;-6.10;97187.00;;;;5064041;28;20490;-65
2021/01/19 00:57:52;;;;;;;2.40;1.93;;;-4.60;99.90;-6.30;97199.00;;;;5067254;28;20480;-65
2021/01/19 01:00:21;;;;;;;2.70;2.33;;;-4.60;99.90;-6.10;97197.00;;;;5065918;28;20504;-66
2021/01/19 01:02:50;;;;;;;3.13;1.90;;;-4.50;99.90;-6.20;97197.00;;;;5069265;28;20450;-64
2021/01/19 01:05:17;;;;;;;2.43;2.23;;;-4.50;99.90;-6.20;97186.00;;;;5067463;28;20442;-65
2021/01/19 01:07:45;;;;;;;5.60;1.70;;;-4.40;99.90;-6.10;97184.00;;;;5069354;28;20426;-65
2021/01/19 01:10:16;;;;;;;3.37;3.00;;;-4.50;99.90;-6.20;97178.00;;;;5070466;28;20732;-63
2021/01/19 01:12:44;;;;;;;3.80;2.60;;;-4.50;99.90;-6.30;97178.00;;;;5069802;28;20476;-65
2021/01/19 01:15:18;;;;;;;3.03;1.90;;;-4.50;99.90;-6.30;97183.00;;;;5069539;28;20498;-65
2021/01/19 01:17:46;;;;;;;2.07;1.87;;;-4.60;99.90;-6.30;97182.00;;;;5067853;28;20436;-66
2021/01/19 01:20:15;;;;;;;2.50;1.83;;;-4.60;99.90;-6.20;97179.00;;;;5066965;28;20440;-65
2021/01/19 01:22:44;;;;;;;1.60;1.50;;;-4.50;99.90;-6.20;97186.00;;;;5069761;28;20500;-67
2021/01/19 01:25:13;;;;;;;2.93;1.93;;;-4.50;99.90;-6.20;97181.00;;;;5069764;28;20457;-63
2021/01/19 01:27:42;;;;;;;1.43;1.20;;;-4.60;99.90;-6.40;97173.00;;;;5069402;28;20518;-67
2021/01/19 01:30:12;;;;;;;2.70;1.43;;;-4.60;99.90;-6.40;97174.00;;;;5070409;28;20521;-64
2021/01/19 01:32:40;;;;;;;2.03;1.60;;;-4.60;99.90;-6.20;97164.00;;;;5069923;28;20472;-65
2021/01/19 01:35:11;;;;;;;1.90;1.80;;;-4.60;99.90;-6.20;97158.00;;;;5070268;28;20477;-66
2021/01/19 01:37:46;;;;;;;1.50;1.30;;;-4.60;99.90;-6.60;97161.00;;;;5067310;28;20517;-65
2021/01/19 01:40:18;;;;;;;1.67;1.57;;;-4.60;99.90;-6.60;97161.00;;;;5069292;28;20432;-63
2021/01/19 01:42:45;;;;;;;1.43;1.33;;;-4.80;99.90;-6.50;97148.00;;;;5069422;28;20434;-66
2021/01/19 01:45:18;;;;;;;2.10;1.77;;;-4.80;99.90;-6.40;97150.00;;;;5069873;28;20526;-65
2021/01/19 01:47:47;;;;;;;2.13;1.73;;;-4.80;99.90;-6.40;97155.00;;;;5068967;28;20430;-64
2021/01/19 01:50:16;;;;;;;5.10;1.30;;;-4.80;99.90;-6.30;97152.00;;;;5069770;28;20430;-65
2021/01/19 01:52:46;;;;;;;1.70;1.50;;;-4.70;99.90;-6.10;97160.00;;;;5068035;28;20426;-63
2021/01/19 01:55:16;;;;;;;1.90;1.80;;;-4.30;99.90;-6.30;97152.00;;;;5068598;28;20501;-67
2021/01/19 01:57:44;;;;;;;2.07;1.50;;;-4.50;99.90;-6.10;97155.00;;;;5066546;28;20599;-66
2021/01/19 02:00:14;;;;;;;1.67;1.50;;;-4.60;99.90;-6.10;97159.00;;;;5068437;28;20426;-64
2021/01/19 02:02:50;;;;;;;2.47;1.57;;;-4.50;99.90;-6.30;97148.00;;;;5068039;28;20426;-66
2021/01/19 02:05:18;;;;;;;2.07;1.20;;;-4.50;99.90;-6.40;97165.00;;;;5068223;28;20445;-64
2021/01/19 02:08:03;;;;;;;1.23;1.17;;;-4.60;99.90;-6.70;97152.00;;;;5066913;28;20430;-67
2021/01/19 02:10:44;;;;;;;2.03;1.37;;;-4.70;99.90;-6.60;97154.00;;;;5067612;28;20521;-65
2021/01/19 02:13:21;;;;;;;2.47;1.57;;;-4.80;99.90;-6.30;97154.00;;;;5059912;28;20446;-66
2021/01/19 02:15:57;;;;;;;2.27;1.57;;;-4.80;99.90;-6.30;97154.00;;;;5068391;28;20598;-64
2021/01/19 02:18:43;;;;;;;1.30;1.20;;;-4.80;99.90;-6.50;97159.00;;;;5066665;28;20434;-67
2021/01/19 02:22:05;;;;;;;1.57;1.27;;;-4.70;99.90;-6.50;97147.00;;;;5062596;28;20427;-65
2021/01/19 02:24:44;;;;;;;1.30;1.20;;;-4.80;99.90;-6.60;97149.00;;;;5059519;28;20499;-66
2021/01/19 02:27:45;;;;;;;2.17;1.10;;;-4.80;99.90;-6.80;97156.00;;;;5068348;28;20434;-66
2021/01/19 02:30:50;;;;;;;1.30;1.10;;;-4.90;99.90;-6.80;97152.00;;;;5045094;28;20474;-65
2021/01/19 02:33:33;;;;;;;1.00;1.00;;;-4.90;99.90;-7.00;97143.00;;;;5006290;28;20472;-65
2021/01/19 02:36:08;;;;;;;1.20;1.17;;;-5.10;99.90;-7.00;97137.00;;;;5064528;28;20607;-65
2021/01/19 02:38:47;;;;;;;1.43;1.33;;;-5.10;99.90;-6.90;97144.00;;;;5067380;28;20430;-66
2021/01/19 02:41:18;;;;;;;1.40;1.20;;;-5.10;99.90;-7.00;97148.00;;;;5068777;28;20533;-64
2021/01/19 02:43:56;;;;;;;1.17;1.07;;;-6.70;99.90;-7.00;97137.00;;;;5064766;28;20458;-65
2021/01/19 02:46:25;;;;;;;3.53;1.40;;;-5.20;99.90;-7.20;97143.00;;;;5068134;28;20433;-62
2021/01/19 02:48:54;;;;;;;1.47;1.37;;;-5.20;99.90;-7.30;97140.00;;;;5067732;28;20428;-67
2021/01/19 02:51:22;;;;;;;2.53;1.70;;;-5.30;99.90;-7.10;97130.00;;;;5068763;28;20464;-64
2021/01/19 02:53:53;;;;;;;2.20;1.80;;;-5.40;99.90;-7.00;97137.00;;;;5068493;28;20529;-66
2021/01/19 02:56:34;;;;;;;2.33;1.73;;;-5.20;99.90;-7.00;97149.00;;;;5068571;28;20523;-65
2021/01/19 02:59:14;;;;;;;2.00;1.40;;;-5.30;99.90;-7.00;97146.00;;;;5068074;28;20423;-65
2021/01/19 03:01:49;;;;;;;1.73;1.43;;;-5.30;99.90;-7.00;97142.00;;;;5068999;28;20473;-66
2021/01/19 03:04:20;;;;;;;1.83;1.50;;;-5.30;99.90;-7.00;97140.00;;;;5067078;28;20446;-64
2021/01/19 03:06:50;;;;;;;1.70;1.60;;;-5.30;99.90;-7.00;97146.00;;;;5068076;28;20449;-64
2021/01/19 03:09:19;;;;;;;4.03;1.43;;;-5.30;99.90;-7.00;97140.00;;;;5068567;28;20782;-66
2021/01/19 03:11:49;;;;;;;1.70;1.10;;;-5.30;99.90;-7.30;97154.00;;;;5071701;28;20430;-64
2021/01/19 03:14:17;;;;;;;3.90;2.17;;;-5.30;99.90;-7.60;97142.00;;;;5070054;28;20466;-65
2021/01/19 03:16:45;;;;;;;1.73;1.63;;;-5.50;99.90;-7.50;97139.00;;;;5069771;28;20529;-64
2021/01/19 03:19:16;;;;;;;4.30;2.40;;;-5.60;99.90;-7.60;97140.00;;;;5059197;28;20457;-66
2021/01/19 03:21:44;;;;;;;1.83;1.53;;;-5.60;99.90;-7.50;97142.00;;;;5072526;28;20517;-64
2021/01/19 03:24:12;;;;;;;1.77;1.67;;;-4.70;99.90;-7.50;97141.00;;;;5059523;28;20512;-64
2021/01/19 03:26:40;;;;;;;1.30;1.20;;;-5.70;99.90;-7.60;97138.00;;;;5065656;28;20430;-65
2021/01/19 03:29:07;;;;;;;1.63;1.10;;;-5.80;99.90;-7.60;97134.00;;;;5071671;28;20434;-64
2021/01/19 03:31:35;;;;;;;1.17;1.10;;;-5.80;99.90;-7.70;97142.00;;;;5072525;28;21022;-64
2021/01/19 03:34:03;;;;;;;4.57;1.33;;;-5.80;99.90;-7.80;97138.00;;;;5069783;28;20837;-64
2021/01/19 03:36:31;;;;;;;2.93;1.53;;;-5.80;99.90;-7.70;97133.00;;;;5072044;28;20474;-63
2021/01/19 03:38:59;;;;;;;4.37;1.70;;;-5.90;99.90;-7.60;97125.00;;;;5071640;28;20442;-65
2021/01/19 03:41:26;;;;;;;2.20;1.98;;;-5.90;99.90;-7.60;97144.00;;;;5070674;28;20437;-64
2021/01/19 03:43:54;;;;;;;1.57;1.40;;;-5.70;99.90;-7.60;97137.00;;;;5067791;28;20215;-64
2021/01/19 03:46:22;;;;;;;1.40;1.30;;;-5.90;99.90;-7.50;97138.00;;;;5071354;28;20434;-65
2021/01/19 03:48:50;;;;;;;1.23;1.10;;;-5.80;99.90;-7.60;97137.00;;;;5071570;28;20564;-64
2021/01/19 03:51:17;;;;;;;1.57;1.47;;;-5.80;99.90;-7.80;97128.00;;;;5071694;28;20440;-64
2021/01/19 03:53:46;;;;;;;1.50;1.40;;;-5.90;99.90;-7.70;97127.00;;;;5071427;28;20442;-66
2021/01/19 03:56:14;;;;;;;1.90;1.67;;;-5.90;99.90;-7.80;97124.00;;;;5071715;28;20263;-65
2021/01/19 03:58:41;;;;;;;1.77;1.67;;;-5.90;99.90;-7.90;97121.00;;;;5071734;28;20488;-65
2021/01/19 04:01:09;;;;;;;1.70;1.60;;;-6.00;99.90;-8.00;97115.00;;;;5071668;28;20479;-65
2021/01/19 04:03:37;;;;;;;2.20;1.37;;;-5.90;99.90;-7.90;97114.00;;;;5068810;28;20454;-66
2021/01/19 04:06:06;;;;;;;1.10;1.00;;;-6.90;99.90;-7.70;97112.00;;;;5067522;28;20438;-66
2021/01/19 04:08:35;;;;;;;2.30;2.10;;;-6.00;99.90;-7.70;97108.00;;;;5070573;28;20208;-63
2021/01/19 04:11:04;;;;;;;1.70;1.60;;;-6.00;99.90;-7.80;97104.00;;;;5071405;28;20434;-65
2021/01/19 04:13:32;;;;;;;2.50;2.30;;;-6.00;99.90;-8.10;97096.00;;;;5069156;28;20472;-64
2021/01/19 04:16:01;;;;;;;2.53;2.33;;;-6.10;99.90;-8.20;97099.00;;;;5058726;28;20462;-63
2021/01/19 04:18:29;;;;;;;1.47;1.37;;;-6.10;99.90;-8.20;97104.00;;;;5070693;28;20430;-64
2021/01/19 04:20:57;;;;;;;1.98;1.88;;;-6.20;99.90;-8.20;97109.00;;;;5071210;28;20430;-65
2021/01/19 04:23:24;;;;;;;1.70;1.40;;;-6.30;99.90;-8.10;97111.00;;;;5070441;28;20223;-62
2021/01/19 04:25:52;;;;;;;2.58;1.90;;;-6.30;99.90;-7.90;97103.00;;;;5068341;28;20196;-65
2021/01/19 04:28:21;;;;;;;1.33;1.27;;;-6.30;99.90;-7.80;97092.00;;;;5071355;28;20202;-65
2021/01/19 04:30:48;;;;;;;1.30;1.20;;;-6.20;99.90;-7.80;97101.00;;;;5071205;28;20196;-64
2021/01/19 04:33:16;;;;;;;1.80;1.58;;;-6.10;99.90;-7.80;97099.00;;;;5071186;28;20464;-64
2021/01/19 04:35:45;;;;;;;1.67;1.40;;;-6.10;99.90;-7.80;97105.00;;;;5070654;28;20251;-66
2021/01/19 04:38:13;;;;;;;2.17;1.80;;;-6.00;99.90;-8.10;97117.00;;;;5070682;28;20192;-64
2021/01/19 04:40:41;;;;;;;1.88;1.77;;;-6.10;99.90;-8.10;97119.00;;;;5070774;28;21000;-64
2021/01/19 04:43:12;;;;;;;1.60;1.50;;;-6.20;99.90;-8.00;97118.00;;;;5071212;28;20215;-63
2021/01/19 04:45:42;;;;;;;1.63;1.52;;;-6.20;99.90;-8.00;97124.00;;;;5070363;28;20430;-66
2021/01/19 04:48:10;;;;;;;2.38;1.52;;;-6.20;99.90;-8.00;97117.00;;;;5070024;28;20204;-65
2021/01/19 04:50:38;;;;;;;1.70;1.55;;;-6.20;99.90;-8.00;97109.00;;;;5071010;28;20286;-65
2021/01/19 04:53:10;;;;;;;1.92;1.70;;;-6.20;99.90;-8.20;97115.00;;;;5066349;28;20267;-65
2021/01/19 04:55:47;;;;;;;2.92;2.65;;;-6.20;99.90;-8.30;97102.00;;;;5067417;28;20220;-65
2021/01/19 04:58:23;;;;;;;4.18;2.47;;;-6.30;99.90;-8.40;97105.00;;;;5061198;28;20276;-65
2021/01/19 05:01:08;;;;;;;3.90;1.60;;;-6.40;99.90;-8.20;97097.00;;;;5066536;28;20192;-66
2021/01/19 05:03:42;;;;;;;1.45;1.33;;;-6.40;99.90;-8.20;97101.00;;;;5064863;28;20223;-66
2021/01/19 05:07:26;;;;;;;2.00;1.90;;;-6.40;99.90;-8.20;97100.00;;;;5064821;28;20257;-65
2021/01/19 05:10:09;;;;;;;2.17;1.90;;;-6.40;99.90;-8.30;97106.00;;;;5006555;28;20245;-64
2021/01/19 05:12:44;;;;;;;1.70;1.60;;;-6.40;99.90;-8.20;97115.00;;;;5006706;28;20237;-66
2021/01/19 05:15:15;;;;;;;1.50;1.40;;;-6.40;99.90;-8.20;97118.00;;;;5062972;28;20238;-66
2021/01/19 05:17:45;;;;;;;1.35;1.35;;;-6.40;99.90;-8.10;97120.00;;;;5064893;28;20427;-66
2021/01/19 05:20:13;;;;;;;1.58;1.40;;;-6.40;99.90;-8.20;97107.00;;;;5066036;28;20281;-66
2021/01/19 05:22:41;;;;;;;1.80;1.70;;;-6.40;99.90;-8.20;97109.00;;;;5069899;28;20199;-66
2021/01/19 05:25:10;;;;;;;1.50;1.40;;;-6.40;99.90;-8.20;97117.00;;;;5069819;28;20250;-66
2021/01/19 05:27:38;;;;;;;1.30;1.20;;;-6.40;99.90;-8.20;97115.00;;;;5069657;28;20208;-64
2021/01/19 05:30:08;;;;;;;1.33;1.30;;;-6.40;99.90;-8.30;97114.00;;;;5069818;28;20218;-65
2021/01/19 05:32:38;;;;;;;1.95;1.85;;;-6.40;99.90;-8.50;97123.00;;;;5067595;28;20248;-65
2021/01/19 05:35:15;;;;;;;1.23;1.08;;;-6.50;99.90;-8.60;97117.00;;;;5066502;28;20211;-66
2021/01/19 05:37:56;;;;;;;1.50;1.40;;;-6.60;99.90;-8.50;97109.00;;;;5069121;28;20256;-66
2021/01/19 05:40:25;;;;;;;1.50;1.40;;;-6.60;99.90;-8.40;97119.00;;;;5067595;28;20223;-65
2021/01/19 05:42:53;;;;;;;1.20;1.10;;;-6.60;99.90;-8.40;97106.00;;;;5065394;28;20489;-66
2021/01/19 05:45:21;;;;;;;1.75;1.17;;;-6.60;99.90;-8.40;97105.00;;;;5062794;28;20470;-66
2021/01/19 05:47:49;;;;;;;1.88;1.77;;;-6.60;99.90;-8.40;97115.00;;;;5066546;28;20220;-64
2021/01/19 05:50:18;;;;;;;1.80;1.50;;;-6.60;99.90;-8.30;97117.00;;;;5067040;28;20244;-66
2021/01/19 05:52:47;;;;;;;1.98;1.85;;;-6.60;99.90;-8.20;97112.00;;;;5065692;28;20231;-65
2021/01/19 05:55:14;;;;;;;2.45;1.95;;;-6.50;99.90;-8.60;97115.00;;;;5067955;28;20238;-64
2021/01/19 05:57:42;;;;;;;1.67;1.58;;;-6.60;99.90;-8.70;97122.00;;;;5066582;28;20231;-63
2021/01/19 06:00:17;;;;;;;3.70;2.47;;;-6.70;99.90;-8.90;97111.00;;;;5067565;28;20231;-65
2021/01/19 06:02:45;;;;;;;12.80;9.23;;;-6.80;99.90;-8.90;97113.00;;;;5065535;28;20219;-66
2021/01/19 06:05:17;;;;;;;1.65;1.55;;;-6.90;99.90;-8.70;97113.00;;;;5066818;28;20252;-66
2021/01/19 06:07:47;;;;;;;1.63;1.55;;;-6.80;99.90;-8.60;97112.00;;;;5065745;28;20220;-64
2021/01/19 06:10:17;;;;;;;1.52;1.40;;;-6.80;99.90;-8.60;97120.00;;;;5067019;28;20223;-64
2021/01/19 06:12:45;;;;;;;1.90;1.80;;;-6.80;99.90;-8.50;97120.00;;;;5066895;28;20262;-65
2021/01/19 06:15:13;;;;;;;2.22;1.77;;;-6.80;99.90;-8.50;97122.00;;;;5056957;28;20256;-65
2021/01/19 06:17:41;;;;;;;2.05;1.95;;;-6.70;99.90;-8.30;97121.00;;;;5064115;28;20227;-65
2021/01/19 06:20:10;;;;;;;2.72;1.63;;;-6.70;99.90;-8.30;97133.00;;;;5057936;28;20714;-66
2021/01/19 06:22:39;;;;;;;1.73;1.63;;;-6.60;99.90;-8.30;97125.00;;;;5065332;28;20314;-66
2021/01/19 06:25:13;;;;;;;1.80;1.70;;;-6.60;99.90;-8.20;97124.00;;;;5066723;28;20239;-65
2021/01/19 06:27:41;;;;;;;1.65;1.55;;;-6.50;99.90;-8.40;97110.00;;;;5066037;28;20243;-64
2021/01/19 06:30:12;;;;;;;1.55;1.45;;;-6.50;99.90;-8.20;97126.00;;;;5067282;28;20235;-63
2021/01/19 06:32:49;;;;;;;3.40;2.35;;;-6.50;99.90;-8.30;97128.00;;;;5065611;28;20243;-65
2021/01/19 06:35:20;;;;;;;3.30;2.67;;;-6.50;99.90;-8.40;97129.00;;;;5066721;28;20230;-65
2021/01/19 06:37:51;;;;;;;4.15;1.83;;;-6.50;99.90;-8.50;97124.00;;;;5063617;28;20227;-65
2021/01/19 06:40:21;;;;;;;2.95;2.28;;;-6.60;99.90;-8.40;97122.00;;;;5067191;28;20232;-63
2021/01/19 06:42:58;;;;;;;2.95;2.65;;;-6.60;99.90;-8.30;97111.00;;;;5065516;28;20277;-64
2021/01/19 06:45:27;;;;;;;7.47;4.07;;;-6.60;99.90;-8.60;97101.00;;;;5059488;28;20231;-64
2021/01/19 06:47:56;;;;;;;6.55;4.05;;;-6.70;99.90;-8.60;97110.00;;;;5060171;28;20216;-65
2021/01/19 06:50:26;;;;;;;5.35;3.78;;;-6.70;99.90;-8.60;97096.00;;;;5060654;28;20586;-65
2021/01/19 06:53:14;;;;;;;3.25;2.63;;;-6.70;99.90;-8.30;97106.00;;;;5053286;28;20731;-65
2021/01/19 06:56:06;;;;;;;3.63;2.03;;;-6.70;99.90;-8.60;97099.00;;;;5059399;28;20240;-66
2021/01/19 06:58:56;;;;;;;1.73;1.63;;;-6.70;99.90;-8.60;97085.00;;;;5066219;28;20223;-65
2021/01/19 07:01:27;;;;;;;1.65;1.55;;;-6.70;99.90;-8.40;97088.00;;;;5058851;28;20232;-66
2021/01/19 07:04:07;;;;;;;1.63;1.52;;;-6.70;99.90;-8.70;97090.00;;;;5071830;28;20234;-67
2021/01/19 07:07:07;;;;;;;1.70;1.60;;;-6.60;99.90;-8.60;97097.00;;;;5066080;28;20219;-65
2021/01/19 07:10:13;;;;;;;2.03;1.85;;;-6.70;99.90;-8.20;97083.00;;;;5065948;28;20232;-65
2021/01/19 07:13:06;;;;;;;2.60;2.15;;;-6.70;99.90;-8.10;97090.00;;;;5064889;28;20235;-66
2021/01/19 07:16:12;;;;;;;2.75;1.80;;;-6.60;99.90;-8.10;97103.00;;;;5061480;28;20235;-67
2021/01/19 07:19:16;;;;;;;5.05;1.75;;;-6.50;99.90;-8.30;97082.00;;;;5056033;28;20231;-64
2021/01/19 07:22:04;;;;;;;3.28;2.70;;;-6.40;99.90;-8.40;97085.00;;;;5059201;28;20301;-64
2021/01/19 07:24:45;;;;;;;6.03;4.45;;;-6.50;99.90;-8.50;97073.00;;;;5064885;28;20228;-66
2021/01/19 07:27:18;;;;;;;10.60;7.70;;;-6.60;99.90;-8.50;97076.00;;;;5058627;28;20372;-65
2021/01/19 07:29:46;;;;;;;3.47;3.28;;;-6.60;99.90;-8.60;97069.00;;;;5064490;28;20307;-63
2021/01/19 07:32:20;;;;;;;4.78;3.33;;;-6.60;99.90;-8.20;97079.00;;;;5064718;28;20362;-65
2021/01/19 07:34:49;;;;;;;6.15;3.75;;;-6.60;99.90;-8.00;97087.00;;;;5066038;28;20246;-66
2021/01/19 07:37:17;;;;;;;30.13;19.92;;;-6.50;99.90;-8.20;97069.00;;;;5065572;28;20788;-65
2021/01/19 07:39:45;;;;;;;7.50;5.22;;;-6.50;99.90;-8.10;97070.00;;;;5063654;28;20307;-65
2021/01/19 07:42:15;;;;;;;2.70;2.13;;;-6.40;99.90;-8.60;97060.00;;;;5062541;28;20311;-65
2021/01/19 07:44:55;;;;;;;2.33;2.22;;;-6.50;99.90;-8.50;97054.00;;;;5065401;28;20232;-66
2021/01/19 07:47:33;;;;;;;3.03;2.63;;;-6.60;99.90;-8.10;97059.00;;;;5065791;28;20234;-63
2021/01/19 07:50:07;;;;;;;70.18;29.92;;;-6.50;99.90;-8.00;97060.00;;;;5056095;28;20232;-65
2021/01/19 07:52:38;;;;;;;24.20;11.75;;;-6.40;99.90;-8.10;97062.00;;;;5054584;28;20235;-65
2021/01/19 07:55:18;;;;;;;29.33;16.20;;;-6.30;99.90;-8.00;97056.00;;;;5062055;28;20315;-65
2021/01/19 07:57:48;;;;;;;2.25;2.10;;;-6.30;99.90;-7.80;97060.00;;;;5068552;28;20247;-66
2021/01/19 08:00:22;;;;;;;3.05;2.85;;;-6.20;99.90;-7.60;97060.00;;;;5069556;28;20220;-63
2021/01/19 08:03:02;;;;;;;3.13;2.88;;;-6.10;99.90;-7.50;97071.00;;;;5068227;28;20228;-64
2021/01/19 08:05:29;;;;;;;8.52;6.47;;;-6.00;99.90;-7.80;97060.00;;;;5064765;28;20234;-66
2021/01/19 08:07:57;;;;;;;3.47;3.15;;;-6.00;99.90;-7.90;97067.00;;;;5057750;28;20761;-63
2021/01/19 08:10:28;;;;;;;21.03;11.33;;;-6.00;99.90;-7.70;97065.00;;;;5059184;28;20302;-64
2021/01/19 08:12:58;;;;;;;5.43;3.20;;;-6.00;99.90;-7.70;97070.00;;;;5057939;28;20472;-65
2021/01/19 08:15:31;;;;;;;2.27;2.07;;;-6.00;99.90;-7.70;97076.00;;;;5050798;28;20229;-65
2021/01/19 08:18:00;;;;;;;3.55;2.60;;;-5.70;99.90;-7.50;97064.00;;;;5065884;28;20535;-66
2021/01/19 08:20:31;;;;;;;2.38;2.10;;;-5.90;99.90;-7.20;97066.00;;;;5066722;28;20663;-65
2021/01/19 08:23:14;;;;;;;3.20;2.53;;;-5.70;99.90;-7.00;97073.00;;;;5060940;28;20232;-65
2021/01/19 08:25:43;;;;;;;6.55;5.93;;;-5.60;99.90;-6.80;97071.00;;;;5060622;28;20461;-65
2021/01/19 08:28:13;;;;;;;16.55;8.93;;;-5.40;99.90;-7.00;97077.00;;;;5061361;28;20231;-66
2021/01/19 08:30:44;;;;;;;5.70;2.83;;;-5.40;99.90;-6.80;97074.00;;;;5064360;28;20223;-64
2021/01/19 08:33:13;;;;;;;2.60;2.10;;;-5.30;99.90;-6.90;97063.00;;;;5066169;28;20486;-67
2021/01/19 08:35:41;;;;;;;4.57;3.07;;;-5.20;99.90;-6.60;97071.00;;;;5063347;28;20475;-65
2021/01/19 08:38:08;;;;;;;3.80;3.50;;;-5.20;99.90;-6.40;97074.00;;;;5060809;28;20481;-63
2021/01/19 08:40:37;;;;;;;104.90;40.87;;;-5.00;99.90;-6.40;97063.00;;;;5063575;28;21003;-64
2021/01/19 08:43:07;;;;;;;21.50;13.27;;;-4.90;99.90;-6.20;97060.00;;;;5067581;28;20505;-65
2021/01/19 08:45:38;;;;;;;10.00;6.67;;;-4.80;99.90;-6.10;97064.00;;;;5063309;28;20470;-65
2021/01/19 08:48:09;;;;;;;18.47;7.67;;;-4.20;99.90;-6.00;97063.00;;;;5056939;28;20517;-65
2021/01/19 08:50:39;;;;;;;25.30;11.93;;;-4.60;99.90;-5.80;97059.00;;;;5065016;28;20541;-65
2021/01/19 08:53:09;;;;;;;15.33;8.97;;;-4.50;99.90;-5.70;97057.00;;;;5056751;28;20478;-66
2021/01/19 08:55:37;;;;;;;34.97;13.37;;;-4.30;99.90;-5.60;97060.00;;;;5067470;28;20474;-65
2021/01/19 08:58:07;;;;;;;20.47;8.37;;;-4.20;99.90;-5.60;97068.00;;;;5066575;28;20466;-64
2021/01/19 09:00:37;;;;;;;23.43;13.10;;;-3.40;99.90;-5.50;97062.00;;;;5067868;28;21029;-65
2021/01/19 09:03:13;;;;;;;14.87;10.73;;;-4.00;99.90;-5.60;97051.00;;;;5067765;28;20583;-65
2021/01/19 09:05:43;;;;;;;76.63;34.20;;;-4.00;99.90;-5.80;97058.00;;;;5067020;28;20462;-65
2021/01/19 09:08:15;;;;;;;19.97;12.07;;;-4.00;99.90;-5.40;97052.00;;;;5065509;28;20485;-66
2021/01/19 09:10:43;;;;;;;78.90;34.47;;;-4.00;99.90;-5.30;97054.00;;;;5058767;28;20534;-65
2021/01/19 09:13:13;;;;;;;58.30;24.30;;;-3.90;99.90;-5.10;97051.00;;;;5067681;28;20490;-64
2021/01/19 09:15:43;;;;;;;42.77;17.73;;;-3.80;99.90;-5.20;97055.00;;;;5066093;28;20494;-66
2021/01/19 09:18:12;;;;;;;39.63;15.37;;;-3.70;99.90;-5.20;97056.00;;;;5066260;28;20482;-65
2021/01/19 09:20:40;;;;;;;4.60;3.87;;;-3.60;99.90;-5.10;97061.00;;;;5062974;28;20519;-64
2021/01/19 09:23:15;;;;;;;14.00;7.43;;;-3.60;99.90;-4.80;97052.00;;;;5063216;28;20493;-65
2021/01/19 09:25:43;;;;;;;8.00;5.73;;;-3.50;99.90;-4.60;97060.00;;;;5065885;28;20983;-66
2021/01/19 09:28:15;;;;;;;36.20;17.47;;;-3.30;99.90;-4.30;97050.00;;;;5065942;28;20553;-66
2021/01/19 09:30:43;;;;;;;9.90;6.87;;;-3.20;99.90;-4.10;97052.00;;;;5067151;28;20485;-65
2021/01/19 09:33:13;;;;;;;3.57;3.27;;;-3.00;99.90;-4.00;97045.00;;;;5066295;28;20484;-65
2021/01/19 09:35:44;;;;;;;8.07;4.77;;;-2.80;99.90;-4.10;97043.00;;;;5066719;28;20473;-66
2021/01/19 09:38:17;;;;;;;60.20;32.20;;;-2.60;99.90;-4.30;97045.00;;;;5047587;28;20538;-65
2021/01/19 09:40:46;;;;;;;6.73;5.87;;;-2.60;99.90;-4.20;97038.00;;;;5054200;28;20450;-65
2021/01/19 09:43:17;;;;;;;5.73;3.97;;;-2.60;99.90;-3.90;97032.00;;;;5066841;28;20557;-64
2021/01/19 09:45:46;;;;;;;10.83;7.03;;;-2.60;99.90;-3.80;97032.00;;;;5067046;28;20458;-66
2021/01/19 09:48:16;;;;;;;35.83;19.63;;;-2.50;99.90;-3.50;97029.00;;;;5066320;28;20553;-66
2021/01/19 09:50:43;;;;;;;41.87;19.13;;;-2.30;99.90;-3.40;97030.00;;;;5067245;28;20458;-66
2021/01/19 09:53:23;;;;;;;13.30;8.27;;;-2.20;99.90;-3.30;97020.00;;;;5061992;28;20498;-65
2021/01/19 09:55:51;;;;;;;8.63;4.33;;;-2.00;99.90;-3.20;97014.00;;;;5060923;28;20470;-64
2021/01/19 09:58:24;;;;;;;11.97;8.57;;;-1.90;99.90;-3.40;97001.00;;;;5062170;28;20459;-65
2021/01/19 10:00:53;;;;;;;5.03;3.40;;;-1.80;99.90;-3.40;96999.00;;;;5063993;28;20496;-66
2021/01/19 10:03:25;;;;;;;7.33;4.63;;;-1.90;99.90;-3.10;97000.00;;;;5063562;28;20471;-64
2021/01/19 10:06:02;;;;;;;6.63;3.43;;;-1.80;99.90;-2.90;96999.00;;;;5060731;28;20454;-66
2021/01/19 10:08:30;;;;;;;15.60;10.30;;;-1.70;99.90;-2.70;96984.00;;;;5063872;28;20473;-65
2021/01/19 10:10:59;;;;;;;14.60;11.30;;;-1.50;99.90;-2.60;96987.00;;;;5061945;28;20611;-66
2021/01/19 10:13:31;;;;;;;9.77;7.27;;;-1.50;99.90;-2.60;96971.00;;;;5067049;28;20462;-66
2021/01/19 10:16:14;;;;;;;8.80;5.63;;;-1.30;99.90;-2.40;96968.00;;;;5056263;28;20479;-66
2021/01/19 10:18:42;;;;;;;8.80;5.27;;;-1.20;99.90;-2.30;96959.00;;;;5058815;28;20877;-67
2021/01/19 10:21:10;;;;;;;7.60;4.73;;;-1.10;99.90;-2.30;96961.00;;;;5063256;28;20466;-65
2021/01/19 10:23:37;;;;;;;5.53;4.37;;;-1.00;99.90;-2.20;96968.00;;;;5061791;28;20462;-64
2021/01/19 10:26:08;;;;;;;6.97;4.00;;;-0.90;99.90;-2.30;96970.00;;;;5062721;28;20552;-65
2021/01/19 10:28:45;;;;;;;10.20;5.40;;;-0.80;99.90;-2.20;96959.00;;;;5060133;28;20470;-64
2021/01/19 10:31:19;;;;;;;6.57;3.67;;;-0.80;99.90;-2.10;96963.00;;;;5061727;28;20552;-66
2021/01/19 10:34:00;;;;;;;6.97;5.30;;;-0.80;99.90;-1.60;96973.00;;;;5052768;28;20478;-66
2021/01/19 10:36:30;;;;;;;8.40;4.20;;;-0.60;99.90;-1.20;96959.00;;;;5063907;28;21043;-66
2021/01/19 10:39:05;;;;;;;6.40;4.73;;;-0.30;99.90;-1.40;96955.00;;;;5062464;28;20536;-66
2021/01/19 10:41:33;;;;;;;9.13;4.50;;;-0.10;99.90;-1.20;96962.00;;;;5057453;28;20498;-66
2021/01/19 10:44:05;;;;;;;6.63;4.20;;;0.00;99.90;-1.00;96956.00;;;;5053162;28;20471;-65
2021/01/19 10:46:33;;;;;;;6.40;3.93;;;0.10;99.90;-1.20;96947.00;;;;5058499;28;20474;-65
2021/01/19 10:49:03;;;;;;;10.30;5.33;;;0.20;99.90;-1.60;96934.00;;;;5061637;28;20470;-65
2021/01/19 10:51:31;;;;;;;6.47;4.47;;;0.10;99.90;-1.60;96934.00;;;;5062045;28;20589;-65
2021/01/19 10:54:11;;;;;;;7.33;5.63;;;0.00;99.90;-1.60;96929.00;;;;5063157;28;20461;-65
2021/01/19 10:56:41;;;;;;;6.73;4.03;;;0.00;99.90;-1.40;96932.00;;;;5063977;28;20551;-66
2021/01/19 10:59:09;;;;;;;7.30;4.43;;;0.00;99.90;-1.20;96924.00;;;;5063988;28;20489;-65
2021/01/19 11:01:38;;;;;;;7.90;5.47;;;0.00;99.90;-1.30;96923.00;;;;5063742;28;20886;-65
2021/01/19 11:04:07;;;;;;;11.97;6.77;;;0.10;99.90;-1.40;96913.00;;;;5063532;28;20936;-65
2021/01/19 11:06:36;;;;;;;9.00;5.97;;;0.10;99.90;-1.50;96901.00;;;;5061132;28;20533;-67
2021/01/19 11:09:05;;;;;;;26.53;13.97;;;-0.10;99.90;-1.50;96913.00;;;;5063827;28;20489;-66
2021/01/19 11:11:35;;;;;;;9.00;5.53;;;-0.10;99.90;-1.40;96903.00;;;;5063955;28;21207;-65
2021/01/19 11:14:05;;;;;;;6.67;4.77;;;-0.40;99.90;-1.60;96905.00;;;;5062518;28;20461;-66